sensor_id;sensor_type;location;lat;lon;timestamp;temperature;humidity
20839;DHT22;10580;51.092;6.828;2022-12-26T00:01:38;12.00;99.90
20839;DHT22;10580;51.092;6.828;2022-12-26T00:04:04;12.00;99.90
20839;DHT22;10580;51.092;6.828;2022-12-26T00:06:31;12.00;99.90
20839;DHT22;10580;51.092;6.828;2022-12-26T00:08:57;11.90;99.90
20839;DHT22;10580;51.092;6.828;2022-12-26T00:11:24;11.90;99.90
20839;DHT22;10580;51.092;6.828;2022-12-26T00:13:59;11.80;99.90
20839;DHT22;10580;51.092;6.828;2022-12-26T00:16:26;11.80;99.90
20839;DHT22;10580;51.092;6.828;2022-12-26T00:18:52;11.80;99.90
20839;DHT22;10580;51.092;6.828;2022-12-26T00:21:18;11.80;99.90
20839;DHT22;10580;51.092;6.828;2022-12-26T00:23:44;11.70;99.90
20839;DHT22;10580;51.092;6.828;2022-12-26T00:26:15;11.70;99.90
20839;DHT22;10580;51.092;6.828;2022-12-26T00:28:41;11.70;99.90
20839;DHT22;10580;51.092;6.828;2022-12-26T00:31:14;11.70;99.90
20839;DHT22;10580;51.092;6.828;2022-12-26T00:33:40;11.70;99.90
20839;DHT22;10580;51.092;6.828;2022-12-26T00:36:12;11.70;99.90
20839;DHT22;10580;51.092;6.828;2022-12-26T00:38:38;11.70;99.90
20839;DHT22;10580;51.092;6.828;2022-12-26T00:41:05;11.60;99.90
20839;DHT22;10580;51.092;6.828;2022-12-26T00:43:31;11.60;99.90
20839;DHT22;10580;51.092;6.828;2022-12-26T00:45:57;11.60;99.90
20839;DHT22;10580;51.092;6.828;2022-12-26T00:48:23;11.60;99.90
20839;DHT22;10580;51.092;6.828;2022-12-26T00:50:49;11.60;99.90
20839;DHT22;10580;51.092;6.828;2022-12-26T00:53:14;11.60;99.90
20839;DHT22;10580;51.092;6.828;2022-12-26T00:55:40;11.60;99.90
20839;DHT22;10580;51.092;6.828;2022-12-26T00:58:06;11.70;99.90
20839;DHT22;10580;51.092;6.828;2022-12-26T01:00:31;11.70;99.90
20839;DHT22;10580;51.092;6.828;2022-12-26T01:02:57;11.70;99.90
20839;DHT22;10580;51.092;6.828;2022-12-26T01:05:23;11.70;99.90
20839;DHT22;10580;51.092;6.828;2022-12-26T01:07:48;11.70;99.90
20839;DHT22;10580;51.092;6.828;2022-12-26T01:10:14;11.70;99.90
20839;DHT22;10580;51.092;6.828;2022-12-26T01:12:40;11.70;99.90
20839;DHT22;10580;51.092;6.828;2022-12-26T01:15:06;11.70;99.90
20839;DHT22;10580;51.092;6.828;2022-12-26T01:17:33;11.80;99.90
20839;DHT22;10580;51.092;6.828;2022-12-26T01:19:58;11.80;99.90
20839;DHT22;10580;51.092;6.828;2022-12-26T01:22:26;11.80;99.90
20839;DHT22;10580;51.092;6.828;2022-12-26T01:24:53;11.80;99.90
20839;DHT22;10580;51.092;6.828;2022-12-26T01:27:19;11.70;99.90
20839;DHT22;10580;51.092;6.828;2022-12-26T01:29:44;11.80;99.90
20839;DHT22;10580;51.092;6.828;2022-12-26T01:32:10;11.80;99.90
20839;DHT22;10580;51.092;6.828;2022-12-26T01:34:35;11.70;99.90
20839;DHT22;10580;51.092;6.828;2022-12-26T01:37:01;11.70;99.90
20839;DHT22;10580;51.092;6.828;2022-12-26T01:39:26;11.80;99.90
20839;DHT22;10580;51.092;6.828;2022-12-26T01:41:52;11.80;99.90
20839;DHT22;10580;51.092;6.828;2022-12-26T01:44:54;11.70;99.90
20839;DHT22;10580;51.092;6.828;2022-12-26T01:47:22;11.80;99.90
20839;DHT22;10580;51.092;6.828;2022-12-26T01:49:52;11.90;99.90
20839;DHT22;10580;51.092;6.828;2022-12-26T01:52:28;11.90;99.90
20839;DHT22;10580;51.092;6.828;2022-12-26T01:54:55;12.00;99.90
20839;DHT22;10580;51.092;6.828;2022-12-26T01:57:34;12.10;99.90
20839;DHT22;10580;51.092;6.828;2022-12-26T02:00:04;12.10;99.90
20839;DHT22;10580;51.092;6.828;2022-12-26T02:02:30;12.10;99.90
20839;DHT22;10580;51.092;6.828;2022-12-26T02:05:16;12.10;99.90
20839;DHT22;10580;51.092;6.828;2022-12-26T02:08:14;12.10;99.90
20839;DHT22;10580;51.092;6.828;2022-12-26T02:10:50;12.10;99.90
20839;DHT22;10580;51.092;6.828;2022-12-26T02:13:17;12.00;99.90
20839;DHT22;10580;51.092;6.828;2022-12-26T02:15:44;11.90;99.90
20839;DHT22;10580;51.092;6.828;2022-12-26T02:18:10;11.80;99.90
20839;DHT22;10580;51.092;6.828;2022-12-26T02:34:40;11.60;99.90
20839;DHT22;10580;51.092;6.828;2022-12-26T02:40:16;11.60;99.90
20839;DHT22;10580;51.092;6.828;2022-12-26T02:42:57;11.50;99.90
20839;DHT22;10580;51.092;6.828;2022-12-26T02:45:43;11.50;99.90
20839;DHT22;10580;51.092;6.828;2022-12-26T02:51:35;11.40;99.90
20839;DHT22;10580;51.092;6.828;2022-12-26T02:57:12;11.30;99.90
20839;DHT22;10580;51.092;6.828;2022-12-26T03:00:11;11.30;99.90
20839;DHT22;10580;51.092;6.828;2022-12-26T03:03:15;11.20;99.90
20839;DHT22;10580;51.092;6.828;2022-12-26T03:06:28;11.20;99.90
20839;DHT22;10580;51.092;6.828;2022-12-26T03:09:24;11.20;99.90
20839;DHT22;10580;51.092;6.828;2022-12-26T03:15:07;11.10;99.90
20839;DHT22;10580;51.092;6.828;2022-12-26T03:20:05;11.10;99.90
20839;DHT22;10580;51.092;6.828;2022-12-26T03:25:07;11.10;99.90
20839;DHT22;10580;51.092;6.828;2022-12-26T03:27:53;11.10;99.90
20839;DHT22;10580;51.092;6.828;2022-12-26T03:30:19;11.00;99.90
20839;DHT22;10580;51.092;6.828;2022-12-26T03:33:03;11.10;99.90
20839;DHT22;10580;51.092;6.828;2022-12-26T03:35:32;11.00;99.90
20839;DHT22;10580;51.092;6.828;2022-12-26T03:38:11;11.00;99.90
20839;DHT22;10580;51.092;6.828;2022-12-26T03:40:53;11.10;99.90
20839;DHT22;10580;51.092;6.828;2022-12-26T03:43:54;11.00;99.90
20839;DHT22;10580;51.092;6.828;2022-12-26T03:47:04;11.00;99.90
20839;DHT22;10580;51.092;6.828;2022-12-26T03:49:55;11.00;99.90
20839;DHT22;10580;51.092;6.828;2022-12-26T03:53:02;11.00;99.90
20839;DHT22;10580;51.092;6.828;2022-12-26T03:55:54;11.00;99.90
20839;DHT22;10580;51.092;6.828;2022-12-26T03:58:55;11.00;99.90
20839;DHT22;10580;51.092;6.828;2022-12-26T04:01:41;11.00;99.90
20839;DHT22;10580;51.092;6.828;2022-12-26T04:04:28;10.90;99.90
20839;DHT22;10580;51.092;6.828;2022-12-26T04:07:18;10.90;99.90
20839;DHT22;10580;51.092;6.828;2022-12-26T04:10:21;10.90;99.90
20839;DHT22;10580;51.092;6.828;2022-12-26T04:13:14;10.90;99.90
20839;DHT22;10580;51.092;6.828;2022-12-26T04:19:41;10.80;99.90
20839;DHT22;10580;51.092;6.828;2022-12-26T04:22:09;10.90;99.90
20839;DHT22;10580;51.092;6.828;2022-12-26T04:25:01;10.80;99.90
20839;DHT22;10580;51.092;6.828;2022-12-26T04:27:47;10.80;99.90
20839;DHT22;10580;51.092;6.828;2022-12-26T04:30:33;10.80;99.90
20839;DHT22;10580;51.092;6.828;2022-12-26T04:33:23;10.80;99.90
20839;DHT22;10580;51.092;6.828;2022-12-26T04:36:14;10.80;99.90
20839;DHT22;10580;51.092;6.828;2022-12-26T04:39:01;10.70;99.90
20839;DHT22;10580;51.092;6.828;2022-12-26T04:41:47;10.70;99.90
20839;DHT22;10580;51.092;6.828;2022-12-26T04:44:33;10.70;99.90
20839;DHT22;10580;51.092;6.828;2022-12-26T04:47:00;10.70;99.90
20839;DHT22;10580;51.092;6.828;2022-12-26T04:49:25;10.80;99.90
20839;DHT22;10580;51.092;6.828;2022-12-26T04:52:12;10.80;99.90
20839;DHT22;10580;51.092;6.828;2022-12-26T04:54:39;10.80;99.90
20839;DHT22;10580;51.092;6.828;2022-12-26T04:57:05;10.80;99.90
20839;DHT22;10580;51.092;6.828;2022-12-26T04:59:32;10.70;99.90
20839;DHT22;10580;51.092;6.828;2022-12-26T05:01:58;10.80;99.90
20839;DHT22;10580;51.092;6.828;2022-12-26T05:04:42;10.80;99.90
20839;DHT22;10580;51.092;6.828;2022-12-26T05:07:40;10.80;99.90
20839;DHT22;10580;51.092;6.828;2022-12-26T05:10:26;10.80;99.90
20839;DHT22;10580;51.092;6.828;2022-12-26T05:12:53;10.80;99.90
20839;DHT22;10580;51.092;6.828;2022-12-26T05:15:19;10.80;99.90
20839;DHT22;10580;51.092;6.828;2022-12-26T05:17:46;10.80;99.90
20839;DHT22;10580;51.092;6.828;2022-12-26T05:20:30;10.80;99.90
20839;DHT22;10580;51.092;6.828;2022-12-26T05:23:22;10.80;99.90
20839;DHT22;10580;51.092;6.828;2022-12-26T05:26:15;10.90;99.90
20839;DHT22;10580;51.092;6.828;2022-12-26T05:29:00;10.80;99.90
20839;DHT22;10580;51.092;6.828;2022-12-26T05:31:25;10.80;99.90
20839;DHT22;10580;51.092;6.828;2022-12-26T05:33:51;10.80;99.90
20839;DHT22;10580;51.092;6.828;2022-12-26T05:39:29;10.80;99.90
20839;DHT22;10580;51.092;6.828;2022-12-26T05:41:54;10.80;99.90
20839;DHT22;10580;51.092;6.828;2022-12-26T05:44:20;10.80;99.90
20839;DHT22;10580;51.092;6.828;2022-12-26T05:46:45;10.80;99.90
20839;DHT22;10580;51.092;6.828;2022-12-26T05:49:11;10.80;99.90
20839;DHT22;10580;51.092;6.828;2022-12-26T05:51:37;10.80;99.90
20839;DHT22;10580;51.092;6.828;2022-12-26T05:54:03;10.80;99.90
20839;DHT22;10580;51.092;6.828;2022-12-26T05:56:29;10.70;99.90
20839;DHT22;10580;51.092;6.828;2022-12-26T05:58:56;10.70;99.90
20839;DHT22;10580;51.092;6.828;2022-12-26T06:01:23;10.70;99.90
20839;DHT22;10580;51.092;6.828;2022-12-26T06:03:51;10.70;99.90
20839;DHT22;10580;51.092;6.828;2022-12-26T06:06:18;10.70;99.90
20839;DHT22;10580;51.092;6.828;2022-12-26T06:08:46;10.60;99.90
20839;DHT22;10580;51.092;6.828;2022-12-26T06:11:12;10.60;99.90
20839;DHT22;10580;51.092;6.828;2022-12-26T06:13:39;10.60;99.90
20839;DHT22;10580;51.092;6.828;2022-12-26T06:16:09;10.60;99.90
20839;DHT22;10580;51.092;6.828;2022-12-26T06:18:35;10.50;99.90
20839;DHT22;10580;51.092;6.828;2022-12-26T06:21:10;10.50;99.90
20839;DHT22;10580;51.092;6.828;2022-12-26T06:23:37;10.50;99.90
20839;DHT22;10580;51.092;6.828;2022-12-26T06:26:03;10.50;99.90
20839;DHT22;10580;51.092;6.828;2022-12-26T06:28:29;10.50;99.90
20839;DHT22;10580;51.092;6.828;2022-12-26T06:31:08;10.50;99.90
20839;DHT22;10580;51.092;6.828;2022-12-26T06:33:34;10.50;99.90
20839;DHT22;10580;51.092;6.828;2022-12-26T06:36:05;10.50;99.90
20839;DHT22;10580;51.092;6.828;2022-12-26T06:38:31;10.50;99.90
20839;DHT22;10580;51.092;6.828;2022-12-26T06:40:56;10.50;99.90
20839;DHT22;10580;51.092;6.828;2022-12-26T06:43:22;10.50;99.90
20839;DHT22;10580;51.092;6.828;2022-12-26T06:45:58;10.50;99.90
20839;DHT22;10580;51.092;6.828;2022-12-26T06:48:24;10.50;99.90
20839;DHT22;10580;51.092;6.828;2022-12-26T06:50:50;10.50;99.90
20839;DHT22;10580;51.092;6.828;2022-12-26T06:53:16;10.50;99.90
20839;DHT22;10580;51.092;6.828;2022-12-26T06:55:41;10.50;99.90
20839;DHT22;10580;51.092;6.828;2022-12-26T06:58:07;10.50;99.90
20839;DHT22;10580;51.092;6.828;2022-12-26T07:00:32;10.50;99.90
20839;DHT22;10580;51.092;6.828;2022-12-26T07:02:58;10.50;99.90
20839;DHT22;10580;51.092;6.828;2022-12-26T07:05:23;10.50;99.90
20839;DHT22;10580;51.092;6.828;2022-12-26T07:07:50;10.50;99.90
20839;DHT22;10580;51.092;6.828;2022-12-26T07:10:17;10.50;99.90
20839;DHT22;10580;51.092;6.828;2022-12-26T07:12:43;10.40;99.90
20839;DHT22;10580;51.092;6.828;2022-12-26T07:15:08;10.50;99.90
20839;DHT22;10580;51.092;6.828;2022-12-26T07:17:35;10.50;99.90
20839;DHT22;10580;51.092;6.828;2022-12-26T07:20:02;10.50;99.90
20839;DHT22;10580;51.092;6.828;2022-12-26T07:22:28;10.50;99.90
20839;DHT22;10580;51.092;6.828;2022-12-26T07:24:53;10.50;99.90
20839;DHT22;10580;51.092;6.828;2022-12-26T07:27:19;10.50;99.90
20839;DHT22;10580;51.092;6.828;2022-12-26T07:29:45;10.50;99.90
20839;DHT22;10580;51.092;6.828;2022-12-26T07:32:11;10.40;99.90
20839;DHT22;10580;51.092;6.828;2022-12-26T07:34:36;10.50;99.90
20839;DHT22;10580;51.092;6.828;2022-12-26T07:37:02;10.40;99.90
20839;DHT22;10580;51.092;6.828;2022-12-26T07:39:28;10.50;99.90
20839;DHT22;10580;51.092;6.828;2022-12-26T07:41:53;10.50;99.90
20839;DHT22;10580;51.092;6.828;2022-12-26T07:44:21;10.40;99.90
20839;DHT22;10580;51.092;6.828;2022-12-26T07:46:47;10.40;99.90
20839;DHT22;10580;51.092;6.828;2022-12-26T07:49:13;10.40;99.90
20839;DHT22;10580;51.092;6.828;2022-12-26T07:51:40;10.40;99.90
20839;DHT22;10580;51.092;6.828;2022-12-26T07:54:06;10.40;99.90
20839;DHT22;10580;51.092;6.828;2022-12-26T07:56:31;10.30;99.90
20839;DHT22;10580;51.092;6.828;2022-12-26T07:58:57;10.30;99.90
20839;DHT22;10580;51.092;6.828;2022-12-26T08:01:23;10.30;99.90
20839;DHT22;10580;51.092;6.828;2022-12-26T08:03:49;10.30;99.90
20839;DHT22;10580;51.092;6.828;2022-12-26T08:06:16;10.30;99.90
20839;DHT22;10580;51.092;6.828;2022-12-26T08:08:41;10.30;99.90
20839;DHT22;10580;51.092;6.828;2022-12-26T08:11:08;10.30;99.90
20839;DHT22;10580;51.092;6.828;2022-12-26T08:13:35;10.30;99.90
20839;DHT22;10580;51.092;6.828;2022-12-26T08:16:07;10.30;99.90
20839;DHT22;10580;51.092;6.828;2022-12-26T08:18:33;10.30;99.90
20839;DHT22;10580;51.092;6.828;2022-12-26T08:20:59;10.30;99.90
20839;DHT22;10580;51.092;6.828;2022-12-26T08:23:25;10.30;99.90
20839;DHT22;10580;51.092;6.828;2022-12-26T08:25:50;10.30;99.90
20839;DHT22;10580;51.092;6.828;2022-12-26T08:28:16;10.30;99.90
20839;DHT22;10580;51.092;6.828;2022-12-26T08:30:42;10.30;99.90
20839;DHT22;10580;51.092;6.828;2022-12-26T08:33:09;10.30;99.90
20839;DHT22;10580;51.092;6.828;2022-12-26T08:35:35;10.40;99.90
20839;DHT22;10580;51.092;6.828;2022-12-26T08:38:01;10.40;99.90
20839;DHT22;10580;51.092;6.828;2022-12-26T08:40:27;10.40;99.90
20839;DHT22;10580;51.092;6.828;2022-12-26T08:42:52;10.40;99.90
20839;DHT22;10580;51.092;6.828;2022-12-26T08:45:18;10.40;99.90
20839;DHT22;10580;51.092;6.828;2022-12-26T08:47:44;10.40;99.90
20839;DHT22;10580;51.092;6.828;2022-12-26T08:50:09;10.40;99.90
20839;DHT22;10580;51.092;6.828;2022-12-26T08:52:35;10.40;99.90
20839;DHT22;10580;51.092;6.828;2022-12-26T08:55:01;10.50;99.90
20839;DHT22;10580;51.092;6.828;2022-12-26T08:57:27;10.50;99.90
20839;DHT22;10580;51.092;6.828;2022-12-26T08:59:53;10.60;99.90
20839;DHT22;10580;51.092;6.828;2022-12-26T09:02:18;10.60;99.90
20839;DHT22;10580;51.092;6.828;2022-12-26T09:04:44;10.70;99.90
20839;DHT22;10580;51.092;6.828;2022-12-26T09:07:09;10.70;99.90
20839;DHT22;10580;51.092;6.828;2022-12-26T09:09:35;10.70;99.90
20839;DHT22;10580;51.092;6.828;2022-12-26T09:12:00;10.70;99.90
20839;DHT22;10580;51.092;6.828;2022-12-26T09:14:26;10.80;99.90
20839;DHT22;10580;51.092;6.828;2022-12-26T09:16:52;10.80;99.90
20839;DHT22;10580;51.092;6.828;2022-12-26T09:19:19;10.80;99.90
20839;DHT22;10580;51.092;6.828;2022-12-26T09:21:46;10.80;99.90
20839;DHT22;10580;51.092;6.828;2022-12-26T09:24:16;10.80;99.90
20839;DHT22;10580;51.092;6.828;2022-12-26T09:26:43;10.80;99.90
20839;DHT22;10580;51.092;6.828;2022-12-26T09:29:10;10.80;99.90
20839;DHT22;10580;51.092;6.828;2022-12-26T09:31:36;10.90;99.90
20839;DHT22;10580;51.092;6.828;2022-12-26T09:34:03;10.90;99.90
20839;DHT22;10580;51.092;6.828;2022-12-26T09:36:31;10.90;99.90
20839;DHT22;10580;51.092;6.828;2022-12-26T09:38:58;10.90;99.90
20839;DHT22;10580;51.092;6.828;2022-12-26T09:41:43;11.00;99.90
20839;DHT22;10580;51.092;6.828;2022-12-26T09:44:15;11.00;99.90
20839;DHT22;10580;51.092;6.828;2022-12-26T09:47:13;11.00;99.90
20839;DHT22;10580;51.092;6.828;2022-12-26T09:49:54;11.10;99.90
20839;DHT22;10580;51.092;6.828;2022-12-26T09:52:57;11.10;99.90
20839;DHT22;10580;51.092;6.828;2022-12-26T09:55:29;11.10;99.90
20839;DHT22;10580;51.092;6.828;2022-12-26T09:58:12;11.10;99.90
20839;DHT22;10580;51.092;6.828;2022-12-26T10:01:35;11.10;99.90
20839;DHT22;10580;51.092;6.828;2022-12-26T10:03:43;11.20;99.90
20839;DHT22;10580;51.092;6.828;2022-12-26T10:06:16;11.20;99.90
20839;DHT22;10580;51.092;6.828;2022-12-26T10:11:44;11.20;99.90
20839;DHT22;10580;51.092;6.828;2022-12-26T10:14:24;11.30;99.90
20839;DHT22;10580;51.092;6.828;2022-12-26T10:23:09;11.30;99.90
20839;DHT22;10580;51.092;6.828;2022-12-26T10:25:59;11.30;99.90
20839;DHT22;10580;51.092;6.828;2022-12-26T10:28:48;11.30;99.90
20839;DHT22;10580;51.092;6.828;2022-12-26T10:31:29;11.30;99.90
20839;DHT22;10580;51.092;6.828;2022-12-26T10:34:11;11.30;99.90
20839;DHT22;10580;51.092;6.828;2022-12-26T10:37:01;11.30;99.90
20839;DHT22;10580;51.092;6.828;2022-12-26T10:42:54;11.40;99.90
20839;DHT22;10580;51.092;6.828;2022-12-26T10:45:42;11.50;99.90
20839;DHT22;10580;51.092;6.828;2022-12-26T10:48:12;11.50;99.90
20839;DHT22;10580;51.092;6.828;2022-12-26T10:50:45;11.50;99.90
20839;DHT22;10580;51.092;6.828;2022-12-26T10:53:13;11.50;99.90
20839;DHT22;10580;51.092;6.828;2022-12-26T10:55:39;11.50;99.90
20839;DHT22;10580;51.092;6.828;2022-12-26T10:58:13;11.50;99.90
20839;DHT22;10580;51.092;6.828;2022-12-26T11:00:40;11.50;99.90
20839;DHT22;10580;51.092;6.828;2022-12-26T11:03:14;11.40;99.90
20839;DHT22;10580;51.092;6.828;2022-12-26T11:05:42;11.40;99.90
20839;DHT22;10580;51.092;6.828;2022-12-26T11:10:37;11.40;99.90
20839;DHT22;10580;51.092;6.828;2022-12-26T11:13:06;11.40;99.90
20839;DHT22;10580;51.092;6.828;2022-12-26T11:15:45;11.40;99.90
20839;DHT22;10580;51.092;6.828;2022-12-26T11:18:19;11.40;99.90
20839;DHT22;10580;51.092;6.828;2022-12-26T11:20:45;11.40;99.90
20839;DHT22;10580;51.092;6.828;2022-12-26T11:23:28;11.40;99.90
20839;DHT22;10580;51.092;6.828;2022-12-26T11:25:59;11.40;99.90
20839;DHT22;10580;51.092;6.828;2022-12-26T11:28:32;11.40;99.90
20839;DHT22;10580;51.092;6.828;2022-12-26T11:31:00;11.40;99.90
20839;DHT22;10580;51.092;6.828;2022-12-26T11:33:32;11.40;99.90
20839;DHT22;10580;51.092;6.828;2022-12-26T11:49:56;11.30;99.90
20839;DHT22;10580;51.092;6.828;2022-12-26T11:52:37;11.50;99.90
20839;DHT22;10580;51.092;6.828;2022-12-26T12:00:38;11.60;99.90
20839;DHT22;10580;51.092;6.828;2022-12-26T12:03:11;11.70;99.90
20839;DHT22;10580;51.092;6.828;2022-12-26T12:05:43;11.70;99.90
20839;DHT22;10580;51.092;6.828;2022-12-26T12:14:09;11.60;99.90
20839;DHT22;10580;51.092;6.828;2022-12-26T12:19:46;11.60;99.90
20839;DHT22;10580;51.092;6.828;2022-12-26T12:22:34;11.60;99.90
20839;DHT22;10580;51.092;6.828;2022-12-26T12:38:31;11.80;99.90
20839;DHT22;10580;51.092;6.828;2022-12-26T12:51:29;11.50;99.90
20839;DHT22;10580;51.092;6.828;2022-12-26T12:59:42;11.50;99.90
20839;DHT22;10580;51.092;6.828;2022-12-26T13:02:46;11.50;99.90
20839;DHT22;10580;51.092;6.828;2022-12-26T13:07:53;11.00;99.90
20839;DHT22;10580;51.092;6.828;2022-12-26T13:10:36;10.90;99.90
20839;DHT22;10580;51.092;6.828;2022-12-26T13:13:32;10.70;99.90
20839;DHT22;10580;51.092;6.828;2022-12-26T13:16:28;10.50;99.90
20839;DHT22;10580;51.092;6.828;2022-12-26T13:19:19;10.20;99.90
20839;DHT22;10580;51.092;6.828;2022-12-26T13:21:48;10.00;99.90
20839;DHT22;10580;51.092;6.828;2022-12-26T13:29:35;9.70;99.90
20839;DHT22;10580;51.092;6.828;2022-12-26T13:34:55;9.70;99.90
20839;DHT22;10580;51.092;6.828;2022-12-26T13:40:15;9.70;99.90
20839;DHT22;10580;51.092;6.828;2022-12-26T13:43:15;9.70;99.90
20839;DHT22;10580;51.092;6.828;2022-12-26T13:46:00;9.70;99.90
20839;DHT22;10580;51.092;6.828;2022-12-26T13:50:59;9.60;99.90
20839;DHT22;10580;51.092;6.828;2022-12-26T13:55:53;9.60;99.90
20839;DHT22;10580;51.092;6.828;2022-12-26T13:58:43;9.60;99.90
20839;DHT22;10580;51.092;6.828;2022-12-26T14:09:53;9.60;99.90
20839;DHT22;10580;51.092;6.828;2022-12-26T14:35:00;9.30;99.90
20839;DHT22;10580;51.092;6.828;2022-12-26T14:45:50;9.00;99.90
20839;DHT22;10580;51.092;6.828;2022-12-26T15:32:13;8.70;99.90
20839;DHT22;10580;51.092;6.828;2022-12-26T15:46:43;8.50;99.90
20839;DHT22;10580;51.092;6.828;2022-12-26T15:52:19;8.40;99.90
20839;DHT22;10580;51.092;6.828;2022-12-26T16:00:56;8.20;99.90
20839;DHT22;10580;51.092;6.828;2022-12-26T16:06:41;8.10;99.90
20839;DHT22;10580;51.092;6.828;2022-12-26T16:09:39;8.00;99.90
20839;DHT22;10580;51.092;6.828;2022-12-26T16:12:31;8.00;99.90
20839;DHT22;10580;51.092;6.828;2022-12-26T16:15:02;7.90;99.90
20839;DHT22;10580;51.092;6.828;2022-12-26T16:17:39;7.90;99.90
20839;DHT22;10580;51.092;6.828;2022-12-26T16:22:41;7.80;99.90
20839;DHT22;10580;51.092;6.828;2022-12-26T16:25:24;7.80;99.90
20839;DHT22;10580;51.092;6.828;2022-12-26T16:27:52;7.80;99.90
20839;DHT22;10580;51.092;6.828;2022-12-26T16:30:21;7.80;99.90
20839;DHT22;10580;51.092;6.828;2022-12-26T16:32:48;7.80;99.90
20839;DHT22;10580;51.092;6.828;2022-12-26T16:35:36;7.80;99.90
20839;DHT22;10580;51.092;6.828;2022-12-26T16:38:06;7.80;99.90
20839;DHT22;10580;51.092;6.828;2022-12-26T16:40:46;7.80;99.90
20839;DHT22;10580;51.092;6.828;2022-12-26T16:43:36;7.70;99.90
20839;DHT22;10580;51.092;6.828;2022-12-26T16:46:04;7.70;99.90
20839;DHT22;10580;51.092;6.828;2022-12-26T16:49:01;7.60;99.90
20839;DHT22;10580;51.092;6.828;2022-12-26T16:51:48;7.60;99.90
20839;DHT22;10580;51.092;6.828;2022-12-26T17:00:01;7.50;99.90
20839;DHT22;10580;51.092;6.828;2022-12-26T17:02:41;7.40;99.90
20839;DHT22;10580;51.092;6.828;2022-12-26T17:05:40;7.30;99.90
20839;DHT22;10580;51.092;6.828;2022-12-26T17:09:06;7.10;99.90
20839;DHT22;10580;51.092;6.828;2022-12-26T17:12:01;6.90;99.90
20839;DHT22;10580;51.092;6.828;2022-12-26T17:15:02;6.70;99.90
20839;DHT22;10580;51.092;6.828;2022-12-26T17:20:34;6.50;99.90
20839;DHT22;10580;51.092;6.828;2022-12-26T17:23:31;6.50;99.90
20839;DHT22;10580;51.092;6.828;2022-12-26T17:26:21;6.40;99.90
20839;DHT22;10580;51.092;6.828;2022-12-26T17:28:47;6.30;99.90
20839;DHT22;10580;51.092;6.828;2022-12-26T17:31:50;6.30;99.90
20839;DHT22;10580;51.092;6.828;2022-12-26T17:37:30;6.30;99.90
20839;DHT22;10580;51.092;6.828;2022-12-26T17:43:03;6.20;99.90
20839;DHT22;10580;51.092;6.828;2022-12-26T17:45:53;6.20;99.90
20839;DHT22;10580;51.092;6.828;2022-12-26T17:48:32;6.10;99.90
20839;DHT22;10580;51.092;6.828;2022-12-26T17:51:17;6.00;99.90
20839;DHT22;10580;51.092;6.828;2022-12-26T17:57:39;5.90;99.90
20839;DHT22;10580;51.092;6.828;2022-12-26T18:00:25;5.80;99.90
20839;DHT22;10580;51.092;6.828;2022-12-26T18:02:51;5.70;99.90
20839;DHT22;10580;51.092;6.828;2022-12-26T18:05:17;5.70;99.90
20839;DHT22;10580;51.092;6.828;2022-12-26T18:08:06;5.60;99.90
20839;DHT22;10580;51.092;6.828;2022-12-26T18:10:35;5.50;99.90
20839;DHT22;10580;51.092;6.828;2022-12-26T18:13:05;5.50;99.90
20839;DHT22;10580;51.092;6.828;2022-12-26T18:15:30;5.40;99.90
20839;DHT22;10580;51.092;6.828;2022-12-26T18:18:08;5.30;99.90
20839;DHT22;10580;51.092;6.828;2022-12-26T18:21:11;5.30;99.90
20839;DHT22;10580;51.092;6.828;2022-12-26T18:23:37;5.20;99.90
20839;DHT22;10580;51.092;6.828;2022-12-26T18:26:06;5.20;99.90
20839;DHT22;10580;51.092;6.828;2022-12-26T18:28:33;5.10;99.90
20839;DHT22;10580;51.092;6.828;2022-12-26T18:31:13;5.10;99.90
20839;DHT22;10580;51.092;6.828;2022-12-26T18:33:42;5.00;99.90
20839;DHT22;10580;51.092;6.828;2022-12-26T18:36:29;4.90;99.90
20839;DHT22;10580;51.092;6.828;2022-12-26T18:39:13;4.90;99.90
20839;DHT22;10580;51.092;6.828;2022-12-26T18:41:42;4.80;99.90
20839;DHT22;10580;51.092;6.828;2022-12-26T18:44:08;4.80;99.90
20839;DHT22;10580;51.092;6.828;2022-12-26T18:46:41;4.70;99.90
20839;DHT22;10580;51.092;6.828;2022-12-26T18:49:08;4.70;99.90
20839;DHT22;10580;51.092;6.828;2022-12-26T18:51:34;4.70;99.90
20839;DHT22;10580;51.092;6.828;2022-12-26T18:54:02;4.60;99.90
20839;DHT22;10580;51.092;6.828;2022-12-26T18:56:27;4.60;99.90
20839;DHT22;10580;51.092;6.828;2022-12-26T18:58:58;4.60;99.90
20839;DHT22;10580;51.092;6.828;2022-12-26T19:01:24;4.50;99.90
20839;DHT22;10580;51.092;6.828;2022-12-26T19:03:50;4.50;99.90
20839;DHT22;10580;51.092;6.828;2022-12-26T19:06:25;4.50;99.90
20839;DHT22;10580;51.092;6.828;2022-12-26T19:08:52;4.40;99.90
20839;DHT22;10580;51.092;6.828;2022-12-26T19:11:17;4.40;99.90
20839;DHT22;10580;51.092;6.828;2022-12-26T19:13:43;4.40;99.90
20839;DHT22;10580;51.092;6.828;2022-12-26T19:16:09;4.30;99.90
20839;DHT22;10580;51.092;6.828;2022-12-26T19:18:35;4.30;99.90
20839;DHT22;10580;51.092;6.828;2022-12-26T19:21:01;4.30;99.90
20839;DHT22;10580;51.092;6.828;2022-12-26T19:23:47;4.30;99.90
20839;DHT22;10580;51.092;6.828;2022-12-26T19:26:17;4.30;99.90
20839;DHT22;10580;51.092;6.828;2022-12-26T19:28:43;4.30;99.90
20839;DHT22;10580;51.092;6.828;2022-12-26T19:31:12;4.30;99.90
20839;DHT22;10580;51.092;6.828;2022-12-26T19:33:37;4.30;99.90
20839;DHT22;10580;51.092;6.828;2022-12-26T19:36:25;4.30;99.90
20839;DHT22;10580;51.092;6.828;2022-12-26T19:41:57;4.30;99.90
20839;DHT22;10580;51.092;6.828;2022-12-26T19:44:23;4.30;99.90
20839;DHT22;10580;51.092;6.828;2022-12-26T19:47:02;4.30;99.90
20839;DHT22;10580;51.092;6.828;2022-12-26T19:49:27;4.30;99.90
20839;DHT22;10580;51.092;6.828;2022-12-26T19:51:53;4.30;99.90
20839;DHT22;10580;51.092;6.828;2022-12-26T19:54:19;4.30;99.90
20839;DHT22;10580;51.092;6.828;2022-12-26T19:56:44;4.30;99.90
20839;DHT22;10580;51.092;6.828;2022-12-26T19:59:28;4.30;99.90
20839;DHT22;10580;51.092;6.828;2022-12-26T20:01:54;4.30;99.90
20839;DHT22;10580;51.092;6.828;2022-12-26T20:04:19;4.30;99.90
20839;DHT22;10580;51.092;6.828;2022-12-26T20:06:45;4.30;99.90
20839;DHT22;10580;51.092;6.828;2022-12-26T20:09:12;4.20;99.90
20839;DHT22;10580;51.092;6.828;2022-12-26T20:11:44;4.20;99.90
20839;DHT22;10580;51.092;6.828;2022-12-26T20:14:21;4.20;99.90
20839;DHT22;10580;51.092;6.828;2022-12-26T20:16:58;4.10;99.90
20839;DHT22;10580;51.092;6.828;2022-12-26T20:22:22;4.10;99.90
20839;DHT22;10580;51.092;6.828;2022-12-26T20:24:48;4.00;99.90
20839;DHT22;10580;51.092;6.828;2022-12-26T20:30:32;4.00;99.90
20839;DHT22;10580;51.092;6.828;2022-12-26T20:33:25;3.90;99.90
20839;DHT22;10580;51.092;6.828;2022-12-26T20:36:27;3.90;99.90
20839;DHT22;10580;51.092;6.828;2022-12-26T20:38:58;3.90;99.90
20839;DHT22;10580;51.092;6.828;2022-12-26T20:41:25;3.90;99.90
20839;DHT22;10580;51.092;6.828;2022-12-26T20:43:51;3.90;99.90